createdAt,value
2022-11-29T00:00:37.521Z,18.05
2022-11-29T00:03:40.021Z,15.80
2022-11-29T00:06:42.205Z,14.85
2022-11-29T00:09:44.684Z,15.75
2022-11-29T00:12:48.271Z,15.55
2022-11-29T00:15:50.778Z,13.90
2022-11-29T00:18:53.019Z,17.05
2022-11-29T00:21:55.692Z,18.08
2022-11-29T00:24:57.870Z,16.55
2022-11-29T00:28:00.470Z,16.23
2022-11-29T00:31:16.965Z,15.75
2022-11-29T00:34:19.674Z,16.62
2022-11-29T00:37:21.891Z,16.05
2022-11-29T00:40:24.587Z,16.25
2022-11-29T00:43:26.779Z,16.08
2022-11-29T00:46:29.343Z,15.88
2022-11-29T00:49:31.567Z,16.20
2022-11-29T00:52:34.059Z,15.93
2022-11-29T00:55:36.427Z,17.08
2022-11-29T00:58:38.992Z,16.02
2022-11-29T01:01:41.327Z,14.90
2022-11-29T01:04:44.178Z,13.88
2022-11-29T01:07:46.684Z,15.05
2022-11-29T01:10:49.279Z,14.68
2022-11-29T01:13:57.123Z,13.18
2022-11-29T01:16:59.763Z,14.60
2022-11-29T01:20:02.984Z,14.15
2022-11-29T01:23:05.685Z,13.55
2022-11-29T01:26:15.082Z,12.85
2022-11-29T01:29:17.604Z,13.32
2022-11-29T01:32:19.803Z,13.35
2022-11-29T01:35:22.378Z,13.55
2022-11-29T01:38:24.640Z,12.63
2022-11-29T01:41:31.068Z,13.23
2022-11-29T01:44:33.133Z,13.35
2022-11-29T01:47:41.426Z,13.43
2022-11-29T01:50:43.892Z,12.82
2022-11-29T01:53:46.565Z,12.32
2022-11-29T01:56:51.902Z,12.37
2022-11-29T02:00:00.662Z,13.35
2022-11-29T02:03:10.970Z,13.25
2022-11-29T02:06:14.664Z,12.95
2022-11-29T02:09:19.850Z,14.65
2022-11-29T02:12:40.803Z,12.52
2022-11-29T02:15:50.150Z,12.85
2022-11-29T02:19:32.752Z,11.68
2022-11-29T02:22:44.073Z,12.07
2022-11-29T02:25:58.819Z,12.85
2022-11-29T02:30:05.010Z,13.00
2022-11-29T02:33:28.474Z,11.02
2022-11-29T02:36:33.258Z,11.45
2022-11-29T02:40:00.794Z,11.32
2022-11-29T02:43:30.616Z,12.25
2022-11-29T02:46:57.328Z,11.77
2022-11-29T02:50:05.399Z,10.93
2022-11-29T02:53:20.201Z,10.17
2022-11-29T02:56:48.507Z,10.10
2022-11-29T03:00:01.192Z,12.20
2022-11-29T03:03:09.465Z,11.27
2022-11-29T03:06:17.921Z,11.12
2022-11-29T03:09:40.358Z,11.65
2022-11-29T03:12:49.439Z,10.27
2022-11-29T03:15:59.112Z,9.82
2022-11-29T03:19:19.871Z,10.65
2022-11-29T03:23:07.553Z,9.63
2022-11-29T03:26:38.131Z,11.32
2022-11-29T03:29:48.140Z,10.40
2022-11-29T03:32:56.708Z,9.48
2022-11-29T03:36:18.668Z,10.10
2022-11-29T03:39:30.533Z,9.95
2022-11-29T03:42:44.727Z,10.23
2022-11-29T03:46:11.341Z,9.32
2022-11-29T03:49:23.328Z,9.98
2022-11-29T03:52:38.632Z,11.73
2022-11-29T03:55:53.238Z,10.45
2022-11-29T03:59:04.850Z,9.98
2022-11-29T04:02:37.958Z,11.07
2022-11-29T04:05:59.561Z,11.30
2022-11-29T04:09:26.086Z,8.75
2022-11-29T04:12:47.363Z,10.70
2022-11-29T04:16:40.998Z,11.07
2022-11-29T04:20:09.842Z,11.00
2022-11-29T04:23:30.135Z,10.95
2022-11-29T04:26:51.431Z,11.15
2022-11-29T04:30:17.893Z,12.27
2022-11-29T04:33:52.821Z,10.82
2022-11-29T04:37:23.364Z,10.73
2022-11-29T04:40:50.202Z,11.50
2022-11-29T04:43:58.139Z,11.60
2022-11-29T04:47:07.716Z,11.12
2022-11-29T04:50:26.870Z,11.20
2022-11-29T04:53:54.040Z,11.93
2022-11-29T04:57:19.459Z,11.27
2022-11-29T05:00:39.371Z,11.60
2022-11-29T05:03:55.456Z,10.88
2022-11-29T05:06:59.914Z,11.98
2022-11-29T05:10:28.243Z,13.65
2022-11-29T05:13:59.210Z,11.65
2022-11-29T05:17:33.235Z,10.85
2022-11-29T05:20:48.979Z,11.25
2022-11-29T05:24:06.517Z,10.63
2022-11-29T05:27:23.185Z,10.57
2022-11-29T05:30:40.427Z,9.45
2022-11-29T05:33:51.224Z,10.85
2022-11-29T05:37:11.399Z,10.75
2022-11-29T05:40:32.725Z,11.15
2022-11-29T05:43:38.019Z,9.93
2022-11-29T05:46:58.605Z,9.90
2022-11-29T05:50:27.326Z,10.30
2022-11-29T05:53:48.666Z,7.72
2022-11-29T05:57:06.957Z,10.02
2022-11-29T06:00:12.879Z,9.38
2022-11-29T06:03:35.076Z,8.40
2022-11-29T06:06:45.036Z,10.10
2022-11-29T06:10:11.890Z,9.68
2022-11-29T06:13:54.547Z,10.85
2022-11-29T06:17:38.788Z,11.45
2022-11-29T06:21:17.024Z,9.70
2022-11-29T06:24:45.418Z,10.93
2022-11-29T06:28:07.117Z,10.82
2022-11-29T06:31:32.059Z,10.90
2022-11-29T06:34:50.827Z,12.32
2022-11-29T06:37:58.470Z,12.00
2022-11-29T06:41:02.321Z,13.05
2022-11-29T06:44:05.693Z,11.60
2022-11-29T06:47:23.678Z,10.23
2022-11-29T06:50:38.427Z,11.38
2022-11-29T06:54:03.272Z,10.82
2022-11-29T06:57:17.561Z,10.88
2022-11-29T07:00:23.741Z,11.07
2022-11-29T07:03:48.026Z,11.95
2022-11-29T07:06:51.407Z,11.07
2022-11-29T07:10:00.350Z,12.07
2022-11-29T07:13:06.126Z,11.53
2022-11-29T07:16:28.336Z,11.77
2022-11-29T07:19:52.386Z,11.55
2022-11-29T07:23:29.439Z,12.68
2022-11-29T07:26:48.140Z,11.45
2022-11-29T07:30:01.885Z,12.57
2022-11-29T07:33:34.235Z,12.05
2022-11-29T07:36:59.050Z,12.63
2022-11-29T07:40:19.644Z,13.20
2022-11-29T07:43:43.454Z,12.43
2022-11-29T07:46:45.708Z,12.77
2022-11-29T07:49:48.186Z,12.88
2022-11-29T07:52:50.489Z,14.05
2022-11-29T07:55:53.091Z,13.73
2022-11-29T07:58:55.249Z,14.10
2022-11-29T08:01:58.793Z,11.70
2022-11-29T08:05:04.739Z,12.25
2022-11-29T08:08:08.681Z,13.10
2022-11-29T08:11:12.406Z,12.88
2022-11-29T08:14:14.822Z,13.35
2022-11-29T08:17:18.584Z,13.32
2022-11-29T08:20:20.726Z,12.45
2022-11-29T08:23:23.241Z,14.00
2022-11-29T08:26:31.232Z,14.65
2022-11-29T08:29:34.257Z,13.62
2022-11-29T08:32:36.386Z,15.20
2022-11-29T08:35:39.984Z,13.65
2022-11-29T08:38:42.433Z,13.95
2022-11-29T08:41:45.132Z,13.05
2022-11-29T08:44:48.121Z,14.75
2022-11-29T08:47:50.831Z,13.32
2022-11-29T08:50:55.344Z,12.45
2022-11-29T08:53:57.740Z,13.05
2022-11-29T08:57:37.885Z,15.55
2022-11-29T09:00:25.043Z,13.52
2022-11-29T09:03:46.044Z,13.35
2022-11-29T09:06:49.692Z,13.98
2022-11-29T09:09:51.938Z,15.30
2022-11-29T09:12:55.052Z,14.95
2022-11-29T09:15:57.583Z,13.52
2022-11-29T09:19:00.214Z,14.57
2022-11-29T09:22:03.618Z,14.02
2022-11-29T09:25:06.715Z,14.57
2022-11-29T09:28:09.105Z,13.73
2022-11-29T09:31:14.561Z,15.23
2022-11-29T09:34:18.814Z,15.13
2022-11-29T09:37:21.395Z,17.73
2022-11-29T09:40:32.025Z,17.17
2022-11-29T09:43:55.027Z,16.27
2022-11-29T09:46:58.932Z,17.30
2022-11-29T09:50:21.274Z,16.37
2022-11-29T09:54:00.871Z,16.70
2022-11-29T09:57:10.622Z,17.67
2022-11-29T10:00:20.550Z,17.48
2022-11-29T10:03:46.479Z,16.37
2022-11-29T10:06:58.444Z,17.65
2022-11-29T10:10:08.409Z,17.10
2022-11-29T10:13:32.296Z,16.95
2022-11-29T10:16:58.693Z,17.20
2022-11-29T10:20:10.216Z,15.98
2022-11-29T10:23:31.052Z,15.68
2022-11-29T10:26:35.330Z,17.15
2022-11-29T10:29:38.441Z,17.90
2022-11-29T10:32:42.446Z,15.45
2022-11-29T10:35:47.627Z,15.43
2022-11-29T10:38:51.399Z,16.95
2022-11-29T10:42:02.517Z,17.65
2022-11-29T10:45:31.017Z,16.58
2022-11-29T10:48:34.200Z,15.38
2022-11-29T10:51:36.671Z,15.02
2022-11-29T10:54:42.384Z,15.07
2022-11-29T10:58:13.148Z,15.38
2022-11-29T11:01:16.836Z,15.75
2022-11-29T11:04:35.182Z,16.98
2022-11-29T11:07:38.954Z,17.65
2022-11-29T11:10:41.450Z,16.65
2022-11-29T11:13:58.100Z,17.33
2022-11-29T11:17:22.511Z,16.92
2022-11-29T11:20:29.108Z,17.00
2022-11-29T11:23:36.369Z,15.70
2022-11-29T11:26:45.353Z,14.68
2022-11-29T11:29:47.532Z,14.48
2022-11-29T11:33:19.408Z,15.65
2022-11-29T11:36:27.390Z,16.90
2022-11-29T11:39:32.449Z,14.40
2022-11-29T11:42:40.342Z,15.55
2022-11-29T11:45:52.039Z,15.23
2022-11-29T11:48:54.356Z,15.23
2022-11-29T11:52:01.221Z,15.85
2022-11-29T11:55:25.305Z,17.77
2022-11-29T11:58:44.579Z,16.42
2022-11-29T12:01:47.192Z,16.40
2022-11-29T12:04:49.701Z,15.85
2022-11-29T12:08:07.918Z,15.90
2022-11-29T12:11:14.681Z,17.25
2022-11-29T12:14:32.584Z,16.60
2022-11-29T12:17:38.431Z,15.90
2022-11-29T12:21:07.184Z,16.98
2022-11-29T12:24:26.265Z,17.42
2022-11-29T12:27:29.216Z,17.57
2022-11-29T12:30:32.050Z,16.87
2022-11-29T12:34:07.707Z,17.65
2022-11-29T12:37:16.679Z,16.75
2022-11-29T12:40:36.768Z,16.65
2022-11-29T12:44:11.279Z,17.48
2022-11-29T12:47:51.538Z,17.45
2022-11-29T12:51:33.513Z,17.20
2022-11-29T12:54:35.568Z,16.83
2022-11-29T12:57:45.988Z,17.60
2022-11-29T13:01:26.305Z,18.52
2022-11-29T13:04:56.514Z,18.12
2022-11-29T13:08:46.680Z,17.10
2022-11-29T13:11:58.365Z,18.75
2022-11-29T13:15:23.981Z,18.37
2022-11-29T13:18:45.146Z,18.33
2022-11-29T13:21:59.518Z,19.80
2022-11-29T13:25:13.143Z,18.52
2022-11-29T13:28:24.940Z,17.90
2022-11-29T13:31:27.933Z,19.05
2022-11-29T13:34:41.579Z,19.05
2022-11-29T13:38:03.289Z,17.80
2022-11-29T13:41:11.232Z,19.05
2022-11-29T13:44:43.582Z,18.50
2022-11-29T13:47:49.929Z,18.02
2022-11-29T13:50:52.505Z,19.62
2022-11-29T13:53:56.703Z,19.05
2022-11-29T13:57:05.337Z,19.30
2022-11-29T14:00:27.327Z,18.73
2022-11-29T14:03:38.694Z,19.00
2022-11-29T14:06:41.299Z,18.73
2022-11-29T14:09:51.332Z,18.90
2022-11-29T14:12:56.774Z,19.48
2022-11-29T14:16:03.447Z,19.35
2022-11-29T14:19:08.411Z,19.52
2022-11-29T14:22:20.807Z,18.98
2022-11-29T14:25:50.692Z,18.83
2022-11-29T14:28:47.707Z,20.10
2022-11-29T14:31:53.324Z,19.52
2022-11-29T14:35:04.711Z,19.00
2022-11-29T14:38:35.010Z,19.65
2022-11-29T14:42:01.899Z,19.25
2022-11-29T14:45:22.763Z,18.23
2022-11-29T14:48:31.547Z,17.95
2022-11-29T14:51:34.420Z,19.55
2022-11-29T14:54:57.039Z,19.27
2022-11-29T14:58:03.723Z,17.98
2022-11-29T15:01:10.694Z,20.40
2022-11-29T15:04:13.553Z,19.87
2022-11-29T15:07:19.394Z,20.70
2022-11-29T15:10:27.084Z,18.98
2022-11-29T15:13:32.891Z,19.70
2022-11-29T15:16:52.223Z,18.33
2022-11-29T15:20:06.662Z,19.48
2022-11-29T15:23:17.754Z,21.50
2022-11-29T15:26:21.130Z,19.52
2022-11-29T15:29:23.419Z,19.50
2022-11-29T15:32:30.854Z,19.23
2022-11-29T15:35:34.485Z,20.02
2022-11-29T15:38:45.755Z,19.98
2022-11-29T15:41:47.909Z,20.10
2022-11-29T15:44:52.884Z,20.40
2022-11-29T15:47:55.433Z,20.23
2022-11-29T15:51:03.690Z,20.50
2022-11-29T15:54:16.608Z,19.58
2022-11-29T15:57:26.468Z,20.62
2022-11-29T16:00:31.407Z,21.45
2022-11-29T16:03:37.796Z,21.00
2022-11-29T16:06:42.179Z,18.40
2022-11-29T16:09:51.712Z,21.65
2022-11-29T16:12:59.166Z,21.52
2022-11-29T16:16:12.695Z,19.48
2022-11-29T16:19:23.253Z,21.20
2022-11-29T16:22:25.599Z,21.45
2022-11-29T16:25:28.052Z,20.98
2022-11-29T16:28:37.152Z,19.12
2022-11-29T16:31:39.450Z,20.88
2022-11-29T16:34:44.274Z,19.45
2022-11-29T16:37:47.307Z,19.35
2022-11-29T16:41:21.516Z,20.70
2022-11-29T16:44:47.013Z,20.12
2022-11-29T16:47:57.834Z,21.30
2022-11-29T16:51:16.032Z,20.25
2022-11-29T16:54:24.391Z,20.83
2022-11-29T16:57:28.759Z,20.15
2022-11-29T17:00:33.391Z,19.62
2022-11-29T17:03:35.717Z,19.90
2022-11-29T17:06:38.185Z,19.42
2022-11-29T17:09:40.333Z,19.45
2022-11-29T17:12:47.758Z,20.45
2022-11-29T17:15:50.408Z,19.58
2022-11-29T17:18:53.705Z,21.25
2022-11-29T17:21:55.919Z,21.87
2022-11-29T17:24:58.312Z,20.27
2022-11-29T17:28:01.094Z,21.42
2022-11-29T17:31:13.799Z,20.15
2022-11-29T17:34:16.700Z,21.67
2022-11-29T17:37:19.161Z,20.20
2022-11-29T17:40:21.251Z,19.48
2022-11-29T17:43:23.656Z,21.65
2022-11-29T17:46:31.781Z,21.75
2022-11-29T17:49:34.515Z,19.52
2022-11-29T17:52:36.988Z,19.73
2022-11-29T17:55:39.363Z,19.27
2022-11-29T17:58:41.877Z,19.23
2022-11-29T18:01:49.458Z,20.10
2022-11-29T18:04:52.174Z,19.67
2022-11-29T18:08:00.348Z,19.90
2022-11-29T18:11:08.085Z,20.08
2022-11-29T18:14:11.999Z,20.73
2022-11-29T18:17:14.408Z,19.27
2022-11-29T18:20:16.569Z,20.20
2022-11-29T18:23:19.033Z,16.77
2022-11-29T18:26:25.961Z,20.88
2022-11-29T18:29:31.514Z,19.48
2022-11-29T18:32:38.161Z,19.40
2022-11-29T18:35:40.564Z,20.45
2022-11-29T18:38:44.497Z,20.50
2022-11-29T18:41:49.304Z,21.00
2022-11-29T18:44:53.596Z,20.15
2022-11-29T18:47:59.846Z,21.42
2022-11-29T18:51:07.153Z,20.70
2022-11-29T18:54:10.193Z,19.75
2022-11-29T18:57:12.320Z,21.45
2022-11-29T19:00:15.379Z,20.83
2022-11-29T19:03:17.508Z,21.33
2022-11-29T19:06:22.434Z,21.50
2022-11-29T19:09:24.748Z,21.80
2022-11-29T19:12:27.124Z,21.33
2022-11-29T19:15:29.185Z,23.95
2022-11-29T19:18:31.764Z,22.15
2022-11-29T19:21:34.588Z,23.10
2022-11-29T19:24:36.996Z,24.05
2022-11-29T19:27:40.084Z,22.42
2022-11-29T19:30:42.893Z,20.83
2022-11-29T19:33:45.884Z,22.80
2022-11-29T19:36:48.259Z,22.02
2022-11-29T19:39:50.312Z,22.23
2022-11-29T19:42:52.645Z,22.65
2022-11-29T19:45:54.771Z,19.77
2022-11-29T19:48:58.530Z,22.50
2022-11-29T19:52:00.629Z,22.67
2022-11-29T19:55:03.149Z,22.02
2022-11-29T19:58:05.478Z,21.25
2022-11-29T20:01:13.666Z,21.62
2022-11-29T20:04:17.465Z,20.33
2022-11-29T20:07:20.699Z,23.58
2022-11-29T20:10:23.551Z,20.98
2022-11-29T20:13:25.744Z,20.88
2022-11-29T20:16:31.042Z,21.58
2022-11-29T20:19:33.205Z,21.02
2022-11-29T20:22:35.606Z,20.83
2022-11-29T20:25:37.841Z,21.25
2022-11-29T20:28:40.707Z,21.55
2022-11-29T20:31:49.420Z,20.83
2022-11-29T20:34:52.499Z,21.50
2022-11-29T20:38:36.170Z,19.90
2022-11-29T20:41:53.429Z,19.42
2022-11-29T20:44:58.103Z,20.70
2022-11-29T20:48:17.707Z,19.60
2022-11-29T20:51:24.494Z,19.23
2022-11-29T20:54:26.857Z,18.33
2022-11-29T20:57:28.938Z,18.73
2022-11-29T21:00:31.461Z,17.23
2022-11-29T21:03:33.936Z,17.50
2022-11-29T21:06:37.967Z,17.90
2022-11-29T21:09:40.098Z,17.62
2022-11-29T21:12:45.524Z,17.90
2022-11-29T21:15:48.523Z,18.95
2022-11-29T21:18:51.080Z,18.08
2022-11-29T21:22:14.245Z,17.20
2022-11-29T21:25:31.825Z,16.12
2022-11-29T21:28:50.505Z,16.50
2022-11-29T21:31:54.155Z,16.87
2022-11-29T21:34:56.327Z,16.75
2022-11-29T21:38:01.571Z,16.52
2022-11-29T21:41:03.704Z,16.48
2022-11-29T21:44:07.789Z,17.45
2022-11-29T21:47:10.378Z,14.85
2022-11-29T21:50:13.722Z,17.35
2022-11-29T21:53:15.846Z,15.88
2022-11-29T21:56:18.264Z,15.23
2022-11-29T21:59:20.560Z,16.40
2022-11-29T22:02:23.227Z,15.70
2022-11-29T22:05:25.689Z,14.57
2022-11-29T22:08:27.826Z,17.23
2022-11-29T22:11:34.260Z,15.48
2022-11-29T22:14:36.634Z,15.75
2022-11-29T22:17:39.083Z,14.27
2022-11-29T22:20:41.157Z,14.87
2022-11-29T22:23:43.587Z,14.40
2022-11-29T22:26:46.395Z,14.93
2022-11-29T22:29:48.914Z,15.45
2022-11-29T22:32:51.102Z,14.48
2022-11-29T22:35:53.923Z,15.55
2022-11-29T22:38:55.981Z,15.05
2022-11-29T22:41:58.353Z,14.90
2022-11-29T22:45:02.103Z,15.00
2022-11-29T22:48:04.733Z,14.68
2022-11-29T22:51:06.849Z,15.02
2022-11-29T22:54:11.302Z,14.60
2022-11-29T22:57:13.415Z,15.00
2022-11-29T23:00:15.910Z,15.48
2022-11-29T23:03:18.038Z,14.93
2022-11-29T23:06:25.675Z,14.65
2022-11-29T23:09:29.841Z,15.05
2022-11-29T23:12:32.353Z,14.82
2022-11-29T23:15:34.512Z,14.70
2022-11-29T23:18:38.455Z,13.65
2022-11-29T23:21:41.331Z,13.38
2022-11-29T23:24:43.871Z,14.30
2022-11-29T23:27:46.238Z,13.65
2022-11-29T23:30:48.657Z,14.25
2022-11-29T23:33:51.188Z,14.18
2022-11-29T23:36:53.603Z,13.88
2022-11-29T23:39:55.676Z,14.65
2022-11-29T23:42:58.025Z,13.82
2022-11-29T23:46:04.845Z,13.30
2022-11-29T23:49:07.440Z,13.35
2022-11-29T23:52:09.523Z,14.27
2022-11-29T23:55:14.406Z,14.05
2022-11-29T23:58:16.523Z,13.95
